sensor_id;sensor_type;location;lat;lon;timestamp;P1;durP1;ratioP1;P2;durP2;ratioP2
71166;SDS011;58864;45.928;20.078;2023-01-26T00:00:16;28.98;;;10.85;;
71166;SDS011;58864;45.928;20.078;2023-01-26T00:02:40;29.00;;;9.90;;
71166;SDS011;58864;45.928;20.078;2023-01-26T00:05:05;33.17;;;12.77;;
71166;SDS011;58864;45.928;20.078;2023-01-26T00:07:29;31.23;;;11.48;;
71166;SDS011;58864;45.928;20.078;2023-01-26T00:09:54;29.13;;;11.87;;
71166;SDS011;58864;45.928;20.078;2023-01-26T00:12:18;29.93;;;12.00;;
71166;SDS011;58864;45.928;20.078;2023-01-26T00:14:43;26.60;;;9.82;;
71166;SDS011;58864;45.928;20.078;2023-01-26T00:17:13;30.17;;;10.80;;
71166;SDS011;58864;45.928;20.078;2023-01-26T00:19:37;22.95;;;9.35;;
71166;SDS011;58864;45.928;20.078;2023-01-26T00:22:02;26.23;;;10.40;;
71166;SDS011;58864;45.928;20.078;2023-01-26T00:24:26;27.40;;;9.90;;
71166;SDS011;58864;45.928;20.078;2023-01-26T00:26:50;25.70;;;9.67;;
71166;SDS011;58864;45.928;20.078;2023-01-26T00:29:15;24.00;;;9.07;;
71166;SDS011;58864;45.928;20.078;2023-01-26T00:31:39;24.75;;;8.73;;
71166;SDS011;58864;45.928;20.078;2023-01-26T00:34:04;23.27;;;8.47;;
71166;SDS011;58864;45.928;20.078;2023-01-26T00:36:28;23.33;;;8.70;;
71166;SDS011;58864;45.928;20.078;2023-01-26T00:38:53;22.27;;;8.20;;
71166;SDS011;58864;45.928;20.078;2023-01-26T00:41:17;20.67;;;8.45;;
71166;SDS011;58864;45.928;20.078;2023-01-26T00:44:00;25.90;;;9.43;;
71166;SDS011;58864;45.928;20.078;2023-01-26T00:46:24;24.10;;;8.60;;
71166;SDS011;58864;45.928;20.078;2023-01-26T00:48:49;25.53;;;8.87;;
71166;SDS011;58864;45.928;20.078;2023-01-26T00:51:13;24.73;;;8.70;;
71166;SDS011;58864;45.928;20.078;2023-01-26T00:53:38;22.75;;;7.53;;
71166;SDS011;58864;45.928;20.078;2023-01-26T00:56:02;26.33;;;8.27;;
71166;SDS011;58864;45.928;20.078;2023-01-26T00:58:27;18.77;;;6.30;;
71166;SDS011;58864;45.928;20.078;2023-01-26T01:00:52;21.03;;;7.33;;
71166;SDS011;58864;45.928;20.078;2023-01-26T01:03:16;19.85;;;6.82;;
71166;SDS011;58864;45.928;20.078;2023-01-26T01:05:40;17.33;;;6.60;;
71166;SDS011;58864;45.928;20.078;2023-01-26T01:08:05;21.07;;;7.90;;
71166;SDS011;58864;45.928;20.078;2023-01-26T01:10:29;17.45;;;7.10;;
71166;SDS011;58864;45.928;20.078;2023-01-26T01:12:54;18.80;;;7.03;;
71166;SDS011;58864;45.928;20.078;2023-01-26T01:15:19;17.65;;;6.65;;
71166;SDS011;58864;45.928;20.078;2023-01-26T01:17:44;16.83;;;6.00;;
71166;SDS011;58864;45.928;20.078;2023-01-26T01:20:09;18.88;;;6.45;;
71166;SDS011;58864;45.928;20.078;2023-01-26T01:22:34;15.30;;;6.03;;
71166;SDS011;58864;45.928;20.078;2023-01-26T01:24:59;19.17;;;6.57;;
71166;SDS011;58864;45.928;20.078;2023-01-26T01:27:23;17.13;;;7.30;;
71166;SDS011;58864;45.928;20.078;2023-01-26T01:29:49;19.20;;;7.00;;
71166;SDS011;58864;45.928;20.078;2023-01-26T01:32:13;19.63;;;6.35;;
71166;SDS011;58864;45.928;20.078;2023-01-26T01:34:38;23.30;;;7.87;;
71166;SDS011;58864;45.928;20.078;2023-01-26T01:37:02;17.50;;;6.70;;
71166;SDS011;58864;45.928;20.078;2023-01-26T01:39:27;17.27;;;7.43;;
71166;SDS011;58864;45.928;20.078;2023-01-26T01:41:51;23.02;;;7.57;;
71166;SDS011;58864;45.928;20.078;2023-01-26T01:44:22;22.10;;;7.00;;
71166;SDS011;58864;45.928;20.078;2023-01-26T01:47:11;23.02;;;6.97;;
71166;SDS011;58864;45.928;20.078;2023-01-26T01:52:06;17.07;;;5.87;;
71166;SDS011;58864;45.928;20.078;2023-01-26T01:54:38;15.27;;;5.30;;
71166;SDS011;58864;45.928;20.078;2023-01-26T01:57:06;15.67;;;5.53;;
71166;SDS011;58864;45.928;20.078;2023-01-26T01:59:38;18.10;;;6.35;;
71166;SDS011;58864;45.928;20.078;2023-01-26T02:02:02;22.90;;;7.13;;
71166;SDS011;58864;45.928;20.078;2023-01-26T02:04:27;20.58;;;7.28;;
71166;SDS011;58864;45.928;20.078;2023-01-26T02:06:52;16.67;;;5.43;;
71166;SDS011;58864;45.928;20.078;2023-01-26T02:09:21;15.68;;;5.40;;
71166;SDS011;58864;45.928;20.078;2023-01-26T02:12:08;16.27;;;5.47;;
71166;SDS011;58864;45.928;20.078;2023-01-26T02:14:34;20.17;;;6.30;;
71166;SDS011;58864;45.928;20.078;2023-01-26T02:16:59;16.57;;;5.43;;
71166;SDS011;58864;45.928;20.078;2023-01-26T02:19:30;14.97;;;5.70;;
71166;SDS011;58864;45.928;20.078;2023-01-26T02:22:01;14.05;;;5.10;;
71166;SDS011;58864;45.928;20.078;2023-01-26T02:24:32;18.25;;;5.40;;
71166;SDS011;58864;45.928;20.078;2023-01-26T02:26:57;14.83;;;5.23;;
71166;SDS011;58864;45.928;20.078;2023-01-26T02:29:22;14.23;;;5.15;;
71166;SDS011;58864;45.928;20.078;2023-01-26T02:31:47;17.30;;;5.40;;
71166;SDS011;58864;45.928;20.078;2023-01-26T02:34:11;16.83;;;6.28;;
71166;SDS011;58864;45.928;20.078;2023-01-26T02:36:36;14.20;;;5.23;;
71166;SDS011;58864;45.928;20.078;2023-01-26T02:41:55;15.57;;;5.30;;
71166;SDS011;58864;45.928;20.078;2023-01-26T02:44:38;13.95;;;4.43;;
71166;SDS011;58864;45.928;20.078;2023-01-26T02:47:10;16.63;;;5.38;;
71166;SDS011;58864;45.928;20.078;2023-01-26T02:49:38;11.53;;;4.40;;
71166;SDS011;58864;45.928;20.078;2023-01-26T02:52:14;12.85;;;4.53;;
71166;SDS011;58864;45.928;20.078;2023-01-26T02:54:40;11.02;;;4.28;;
71166;SDS011;58864;45.928;20.078;2023-01-26T02:57:23;12.27;;;4.07;;
71166;SDS011;58864;45.928;20.078;2023-01-26T02:59:47;11.80;;;4.23;;
71166;SDS011;58864;45.928;20.078;2023-01-26T03:02:11;12.67;;;4.63;;
71166;SDS011;58864;45.928;20.078;2023-01-26T03:04:36;12.27;;;4.88;;
71166;SDS011;58864;45.928;20.078;2023-01-26T03:07:00;14.10;;;5.07;;
71166;SDS011;58864;45.928;20.078;2023-01-26T03:09:25;12.57;;;4.30;;
71166;SDS011;58864;45.928;20.078;2023-01-26T03:11:49;13.10;;;4.75;;
71166;SDS011;58864;45.928;20.078;2023-01-26T03:14:14;11.47;;;4.17;;
71166;SDS011;58864;45.928;20.078;2023-01-26T03:16:39;10.37;;;3.83;;
71166;SDS011;58864;45.928;20.078;2023-01-26T03:19:04;14.77;;;4.73;;
71166;SDS011;58864;45.928;20.078;2023-01-26T03:21:48;12.50;;;4.20;;
71166;SDS011;58864;45.928;20.078;2023-01-26T03:24:31;12.15;;;4.47;;
71166;SDS011;58864;45.928;20.078;2023-01-26T03:27:13;13.93;;;5.43;;
71166;SDS011;58864;45.928;20.078;2023-01-26T03:29:50;11.63;;;4.32;;
71166;SDS011;58864;45.928;20.078;2023-01-26T03:32:15;11.93;;;4.60;;
71166;SDS011;58864;45.928;20.078;2023-01-26T03:34:39;13.40;;;5.00;;
71166;SDS011;58864;45.928;20.078;2023-01-26T03:37:04;12.00;;;4.40;;
71166;SDS011;58864;45.928;20.078;2023-01-26T03:39:29;15.40;;;5.47;;
71166;SDS011;58864;45.928;20.078;2023-01-26T03:42:12;15.90;;;6.20;;
71166;SDS011;58864;45.928;20.078;2023-01-26T03:44:55;19.38;;;6.00;;
71166;SDS011;58864;45.928;20.078;2023-01-26T03:47:38;14.63;;;5.35;;
71166;SDS011;58864;45.928;20.078;2023-01-26T03:50:21;14.33;;;4.87;;
71166;SDS011;58864;45.928;20.078;2023-01-26T03:53:25;15.55;;;5.80;;
71166;SDS011;58864;45.928;20.078;2023-01-26T03:56:08;14.38;;;5.45;;
71166;SDS011;58864;45.928;20.078;2023-01-26T03:59:04;15.15;;;6.20;;
71166;SDS011;58864;45.928;20.078;2023-01-26T04:01:33;15.00;;;5.30;;
71166;SDS011;58864;45.928;20.078;2023-01-26T04:04:34;15.57;;;4.90;;
71166;SDS011;58864;45.928;20.078;2023-01-26T04:07:17;14.68;;;5.18;;
71166;SDS011;58864;45.928;20.078;2023-01-26T04:10:00;16.90;;;5.85;;
71166;SDS011;58864;45.928;20.078;2023-01-26T04:12:24;15.13;;;5.47;;
71166;SDS011;58864;45.928;20.078;2023-01-26T04:14:48;14.63;;;5.43;;
71166;SDS011;58864;45.928;20.078;2023-01-26T04:17:31;16.83;;;6.30;;
71166;SDS011;58864;45.928;20.078;2023-01-26T04:20:14;18.73;;;6.72;;
71166;SDS011;58864;45.928;20.078;2023-01-26T04:22:57;19.48;;;6.57;;
71166;SDS011;58864;45.928;20.078;2023-01-26T04:25:22;20.53;;;7.33;;
71166;SDS011;58864;45.928;20.078;2023-01-26T04:27:46;23.77;;;8.57;;
71166;SDS011;58864;45.928;20.078;2023-01-26T04:30:12;24.75;;;10.20;;
71166;SDS011;58864;45.928;20.078;2023-01-26T04:32:37;24.07;;;9.43;;
71166;SDS011;58864;45.928;20.078;2023-01-26T04:35:02;21.60;;;7.30;;
71166;SDS011;58864;45.928;20.078;2023-01-26T04:37:28;17.92;;;6.15;;
71166;SDS011;58864;45.928;20.078;2023-01-26T04:39:52;15.23;;;6.17;;
71166;SDS011;58864;45.928;20.078;2023-01-26T04:42:17;15.65;;;5.82;;
71166;SDS011;58864;45.928;20.078;2023-01-26T04:44:41;15.10;;;4.83;;
71166;SDS011;58864;45.928;20.078;2023-01-26T04:47:06;15.33;;;5.43;;
71166;SDS011;58864;45.928;20.078;2023-01-26T04:49:30;12.70;;;4.77;;
71166;SDS011;58864;45.928;20.078;2023-01-26T04:51:54;14.27;;;4.60;;
71166;SDS011;58864;45.928;20.078;2023-01-26T04:54:19;10.87;;;4.00;;
71166;SDS011;58864;45.928;20.078;2023-01-26T04:56:44;11.37;;;4.43;;
71166;SDS011;58864;45.928;20.078;2023-01-26T04:59:08;12.32;;;4.30;;
71166;SDS011;58864;45.928;20.078;2023-01-26T05:01:33;12.27;;;4.47;;
71166;SDS011;58864;45.928;20.078;2023-01-26T05:03:58;14.60;;;5.30;;
71166;SDS011;58864;45.928;20.078;2023-01-26T05:06:25;12.13;;;4.80;;
71166;SDS011;58864;45.928;20.078;2023-01-26T05:08:49;20.55;;;6.40;;
71166;SDS011;58864;45.928;20.078;2023-01-26T05:11:13;18.17;;;5.80;;
71166;SDS011;58864;45.928;20.078;2023-01-26T05:13:38;14.50;;;5.10;;
71166;SDS011;58864;45.928;20.078;2023-01-26T05:16:03;12.93;;;4.70;;
71166;SDS011;58864;45.928;20.078;2023-01-26T05:18:28;14.20;;;5.63;;
71166;SDS011;58864;45.928;20.078;2023-01-26T05:20:53;14.32;;;4.88;;
71166;SDS011;58864;45.928;20.078;2023-01-26T05:23:17;12.63;;;5.30;;
71166;SDS011;58864;45.928;20.078;2023-01-26T05:25:41;15.00;;;4.73;;
71166;SDS011;58864;45.928;20.078;2023-01-26T05:28:06;14.27;;;5.10;;
71166;SDS011;58864;45.928;20.078;2023-01-26T05:30:30;15.25;;;5.85;;
71166;SDS011;58864;45.928;20.078;2023-01-26T05:33:02;15.03;;;5.80;;
71166;SDS011;58864;45.928;20.078;2023-01-26T05:35:28;14.65;;;4.95;;
71166;SDS011;58864;45.928;20.078;2023-01-26T05:37:53;13.93;;;4.73;;
71166;SDS011;58864;45.928;20.078;2023-01-26T05:40:18;13.43;;;5.22;;
71166;SDS011;58864;45.928;20.078;2023-01-26T05:42:42;12.83;;;5.27;;
71166;SDS011;58864;45.928;20.078;2023-01-26T05:45:07;12.52;;;4.93;;
71166;SDS011;58864;45.928;20.078;2023-01-26T05:47:32;14.53;;;5.70;;
71166;SDS011;58864;45.928;20.078;2023-01-26T05:49:56;18.05;;;6.00;;
71166;SDS011;58864;45.928;20.078;2023-01-26T05:52:21;14.13;;;5.37;;
71166;SDS011;58864;45.928;20.078;2023-01-26T05:54:45;12.20;;;4.85;;
71166;SDS011;58864;45.928;20.078;2023-01-26T05:57:10;18.90;;;6.90;;
71166;SDS011;58864;45.928;20.078;2023-01-26T05:59:35;23.63;;;8.63;;
71166;SDS011;58864;45.928;20.078;2023-01-26T06:01:59;19.80;;;7.63;;
71166;SDS011;58864;45.928;20.078;2023-01-26T06:04:24;19.53;;;6.73;;
71166;SDS011;58864;45.928;20.078;2023-01-26T06:06:51;15.60;;;6.00;;
71166;SDS011;58864;45.928;20.078;2023-01-26T06:09:16;18.55;;;6.28;;
71166;SDS011;58864;45.928;20.078;2023-01-26T06:11:41;17.17;;;6.00;;
71166;SDS011;58864;45.928;20.078;2023-01-26T06:14:05;16.60;;;6.40;;
71166;SDS011;58864;45.928;20.078;2023-01-26T06:16:30;18.47;;;6.30;;
71166;SDS011;58864;45.928;20.078;2023-01-26T06:18:54;20.75;;;6.68;;
71166;SDS011;58864;45.928;20.078;2023-01-26T06:21:18;17.10;;;6.20;;
71166;SDS011;58864;45.928;20.078;2023-01-26T06:23:43;16.30;;;6.13;;
71166;SDS011;58864;45.928;20.078;2023-01-26T06:26:08;17.52;;;5.63;;
71166;SDS011;58864;45.928;20.078;2023-01-26T06:28:32;19.20;;;7.00;;
71166;SDS011;58864;45.928;20.078;2023-01-26T06:30:59;19.15;;;7.47;;
71166;SDS011;58864;45.928;20.078;2023-01-26T06:33:24;21.23;;;8.38;;
71166;SDS011;58864;45.928;20.078;2023-01-26T06:35:48;44.80;;;11.47;;
71166;SDS011;58864;45.928;20.078;2023-01-26T06:38:13;65.50;;;14.83;;
71166;SDS011;58864;45.928;20.078;2023-01-26T06:40:38;48.55;;;13.15;;
71166;SDS011;58864;45.928;20.078;2023-01-26T06:43:03;42.10;;;11.23;;
71166;SDS011;58864;45.928;20.078;2023-01-26T06:45:27;37.50;;;9.80;;
71166;SDS011;58864;45.928;20.078;2023-01-26T06:47:52;32.37;;;9.27;;
71166;SDS011;58864;45.928;20.078;2023-01-26T06:50:20;30.20;;;10.17;;
71166;SDS011;58864;45.928;20.078;2023-01-26T06:52:47;33.78;;;10.52;;
71166;SDS011;58864;45.928;20.078;2023-01-26T06:55:19;27.98;;;10.00;;
71166;SDS011;58864;45.928;20.078;2023-01-26T06:57:45;18.95;;;6.47;;
71166;SDS011;58864;45.928;20.078;2023-01-26T07:00:10;22.33;;;7.67;;
71166;SDS011;58864;45.928;20.078;2023-01-26T07:02:36;21.70;;;7.22;;
71166;SDS011;58864;45.928;20.078;2023-01-26T07:05:00;20.20;;;6.93;;
71166;SDS011;58864;45.928;20.078;2023-01-26T07:07:25;25.70;;;8.57;;
71166;SDS011;58864;45.928;20.078;2023-01-26T07:09:49;22.60;;;7.90;;
71166;SDS011;58864;45.928;20.078;2023-01-26T07:12:13;22.67;;;8.77;;
71166;SDS011;58864;45.928;20.078;2023-01-26T07:14:38;23.55;;;9.23;;
71166;SDS011;58864;45.928;20.078;2023-01-26T07:17:02;23.60;;;9.07;;
71166;SDS011;58864;45.928;20.078;2023-01-26T07:19:27;25.73;;;10.10;;
71166;SDS011;58864;45.928;20.078;2023-01-26T07:21:54;30.75;;;10.23;;
71166;SDS011;58864;45.928;20.078;2023-01-26T07:24:18;20.10;;;8.17;;
71166;SDS011;58864;45.928;20.078;2023-01-26T07:26:44;21.25;;;8.23;;
71166;SDS011;58864;45.928;20.078;2023-01-26T07:29:09;23.33;;;8.63;;
71166;SDS011;58864;45.928;20.078;2023-01-26T07:31:33;24.73;;;9.52;;
71166;SDS011;58864;45.928;20.078;2023-01-26T07:33:58;28.50;;;9.90;;
71166;SDS011;58864;45.928;20.078;2023-01-26T07:36:22;28.13;;;8.90;;
71166;SDS011;58864;45.928;20.078;2023-01-26T07:38:46;26.83;;;9.03;;
71166;SDS011;58864;45.928;20.078;2023-01-26T07:41:11;29.33;;;9.32;;
71166;SDS011;58864;45.928;20.078;2023-01-26T07:43:36;24.00;;;9.60;;
71166;SDS011;58864;45.928;20.078;2023-01-26T07:46:01;17.27;;;6.90;;
71166;SDS011;58864;45.928;20.078;2023-01-26T07:48:26;16.98;;;6.22;;
71166;SDS011;58864;45.928;20.078;2023-01-26T07:50:52;17.17;;;6.25;;
71166;SDS011;58864;45.928;20.078;2023-01-26T07:53:17;16.23;;;6.53;;
71166;SDS011;58864;45.928;20.078;2023-01-26T07:55:42;17.60;;;6.50;;
71166;SDS011;58864;45.928;20.078;2023-01-26T07:58:07;18.97;;;6.67;;
71166;SDS011;58864;45.928;20.078;2023-01-26T08:00:31;16.53;;;6.37;;
71166;SDS011;58864;45.928;20.078;2023-01-26T08:02:55;19.87;;;7.10;;
71166;SDS011;58864;45.928;20.078;2023-01-26T08:05:20;17.50;;;7.37;;
71166;SDS011;58864;45.928;20.078;2023-01-26T08:07:44;29.75;;;10.07;;
71166;SDS011;58864;45.928;20.078;2023-01-26T08:10:09;30.47;;;10.13;;
71166;SDS011;58864;45.928;20.078;2023-01-26T08:12:35;80.15;;;22.98;;
71166;SDS011;58864;45.928;20.078;2023-01-26T08:15:00;62.63;;;19.53;;
71166;SDS011;58864;45.928;20.078;2023-01-26T08:17:24;50.40;;;14.82;;
71166;SDS011;58864;45.928;20.078;2023-01-26T08:19:49;33.27;;;11.60;;
71166;SDS011;58864;45.928;20.078;2023-01-26T08:22:13;31.07;;;11.13;;
71166;SDS011;58864;45.928;20.078;2023-01-26T08:24:37;26.63;;;10.23;;
71166;SDS011;58864;45.928;20.078;2023-01-26T08:27:02;47.03;;;17.00;;
71166;SDS011;58864;45.928;20.078;2023-01-26T08:29:26;79.60;;;23.70;;
71166;SDS011;58864;45.928;20.078;2023-01-26T08:31:51;121.50;;;33.60;;
71166;SDS011;58864;45.928;20.078;2023-01-26T08:34:16;48.80;;;15.40;;
71166;SDS011;58864;45.928;20.078;2023-01-26T08:36:41;50.50;;;18.17;;
71166;SDS011;58864;45.928;20.078;2023-01-26T08:39:05;44.33;;;17.50;;
71166;SDS011;58864;45.928;20.078;2023-01-26T08:41:29;34.33;;;13.10;;
71166;SDS011;58864;45.928;20.078;2023-01-26T08:43:55;28.08;;;10.25;;
71166;SDS011;58864;45.928;20.078;2023-01-26T08:46:22;26.13;;;9.77;;
71166;SDS011;58864;45.928;20.078;2023-01-26T08:48:46;26.70;;;9.20;;
71166;SDS011;58864;45.928;20.078;2023-01-26T08:51:11;24.67;;;10.63;;
71166;SDS011;58864;45.928;20.078;2023-01-26T08:53:35;26.23;;;9.43;;
71166;SDS011;58864;45.928;20.078;2023-01-26T08:56:04;17.75;;;7.60;;
71166;SDS011;58864;45.928;20.078;2023-01-26T08:58:29;24.53;;;9.53;;
71166;SDS011;58864;45.928;20.078;2023-01-26T09:00:54;18.48;;;7.18;;
71166;SDS011;58864;45.928;20.078;2023-01-26T09:03:18;38.90;;;13.00;;
71166;SDS011;58864;45.928;20.078;2023-01-26T09:05:43;28.57;;;11.83;;
71166;SDS011;58864;45.928;20.078;2023-01-26T09:08:08;37.57;;;12.93;;
71166;SDS011;58864;45.928;20.078;2023-01-26T09:10:32;35.45;;;11.82;;
71166;SDS011;58864;45.928;20.078;2023-01-26T09:12:58;24.35;;;9.65;;
71166;SDS011;58864;45.928;20.078;2023-01-26T09:15:23;24.10;;;9.27;;
71166;SDS011;58864;45.928;20.078;2023-01-26T09:17:48;31.65;;;10.55;;
71166;SDS011;58864;45.928;20.078;2023-01-26T09:20:13;35.92;;;12.27;;
71166;SDS011;58864;45.928;20.078;2023-01-26T09:22:37;36.27;;;13.13;;
71166;SDS011;58864;45.928;20.078;2023-01-26T09:25:02;55.67;;;19.20;;
71166;SDS011;58864;45.928;20.078;2023-01-26T09:27:27;60.85;;;22.95;;
71166;SDS011;58864;45.928;20.078;2023-01-26T09:29:51;49.83;;;15.57;;
71166;SDS011;58864;45.928;20.078;2023-01-26T09:32:16;87.00;;;35.70;;
71166;SDS011;58864;45.928;20.078;2023-01-26T09:34:41;49.97;;;19.73;;
71166;SDS011;58864;45.928;20.078;2023-01-26T09:37:06;34.10;;;13.10;;
71166;SDS011;58864;45.928;20.078;2023-01-26T09:39:31;40.43;;;16.97;;
71166;SDS011;58864;45.928;20.078;2023-01-26T09:44:26;26.05;;;10.32;;
71166;SDS011;58864;45.928;20.078;2023-01-26T09:52:23;38.97;;;18.55;;
71166;SDS011;58864;45.928;20.078;2023-01-26T09:54:52;36.65;;;14.18;;
71166;SDS011;58864;45.928;20.078;2023-01-26T09:57:19;40.42;;;15.70;;
71166;SDS011;58864;45.928;20.078;2023-01-26T10:02:44;59.30;;;16.92;;
71166;SDS011;58864;45.928;20.078;2023-01-26T10:05:24;74.60;;;23.88;;
71166;SDS011;58864;45.928;20.078;2023-01-26T10:08:14;44.47;;;16.27;;
71166;SDS011;58864;45.928;20.078;2023-01-26T10:10:42;36.92;;;12.32;;
71166;SDS011;58864;45.928;20.078;2023-01-26T10:13:09;52.00;;;25.33;;
71166;SDS011;58864;45.928;20.078;2023-01-26T10:15:37;48.97;;;25.17;;
71166;SDS011;58864;45.928;20.078;2023-01-26T10:18:07;17.13;;;8.38;;
71166;SDS011;58864;45.928;20.078;2023-01-26T10:20:36;23.50;;;10.27;;
71166;SDS011;58864;45.928;20.078;2023-01-26T10:25:34;23.53;;;8.30;;
71166;SDS011;58864;45.928;20.078;2023-01-26T10:28:01;22.20;;;9.13;;
71166;SDS011;58864;45.928;20.078;2023-01-26T10:30:34;27.27;;;10.85;;
71166;SDS011;58864;45.928;20.078;2023-01-26T10:32:58;26.83;;;11.30;;
71166;SDS011;58864;45.928;20.078;2023-01-26T10:35:23;26.80;;;10.27;;
71166;SDS011;58864;45.928;20.078;2023-01-26T10:37:49;27.83;;;11.00;;
71166;SDS011;58864;45.928;20.078;2023-01-26T10:40:15;27.35;;;12.25;;
71166;SDS011;58864;45.928;20.078;2023-01-26T10:42:40;26.80;;;11.83;;
71166;SDS011;58864;45.928;20.078;2023-01-26T10:45:24;37.97;;;13.97;;
71166;SDS011;58864;45.928;20.078;2023-01-26T10:48:16;38.65;;;15.00;;
71166;SDS011;58864;45.928;20.078;2023-01-26T10:50:45;27.90;;;10.35;;
71166;SDS011;58864;45.928;20.078;2023-01-26T10:53:14;33.63;;;12.50;;
71166;SDS011;58864;45.928;20.078;2023-01-26T10:56:04;19.00;;;7.50;;
71166;SDS011;58864;45.928;20.078;2023-01-26T10:58:49;15.07;;;5.90;;
71166;SDS011;58864;45.928;20.078;2023-01-26T11:01:16;19.20;;;6.90;;
71166;SDS011;58864;45.928;20.078;2023-01-26T11:03:41;44.13;;;17.48;;
71166;SDS011;58864;45.928;20.078;2023-01-26T11:06:16;53.95;;;19.92;;
71166;SDS011;58864;45.928;20.078;2023-01-26T11:08:41;28.23;;;11.37;;
71166;SDS011;58864;45.928;20.078;2023-01-26T11:11:21;29.58;;;11.77;;
71166;SDS011;58864;45.928;20.078;2023-01-26T11:14:14;29.27;;;11.32;;
71166;SDS011;58864;45.928;20.078;2023-01-26T11:16:40;60.10;;;18.90;;
71166;SDS011;58864;45.928;20.078;2023-01-26T11:19:12;59.17;;;18.98;;
71166;SDS011;58864;45.928;20.078;2023-01-26T11:21:52;150.17;;;61.70;;
71166;SDS011;58864;45.928;20.078;2023-01-26T11:24:28;126.65;;;47.85;;
71166;SDS011;58864;45.928;20.078;2023-01-26T11:38:25;29.20;;;11.57;;
71166;SDS011;58864;45.928;20.078;2023-01-26T11:41:05;30.48;;;15.45;;
71166;SDS011;58864;45.928;20.078;2023-01-26T11:48:55;30.97;;;11.77;;
71166;SDS011;58864;45.928;20.078;2023-01-26T11:59:29;29.67;;;12.80;;
71166;SDS011;58864;45.928;20.078;2023-01-26T12:04:24;14.20;;;5.90;;
71166;SDS011;58864;45.928;20.078;2023-01-26T12:06:59;29.90;;;13.20;;
71166;SDS011;58864;45.928;20.078;2023-01-26T12:09:43;28.20;;;13.77;;
71166;SDS011;58864;45.928;20.078;2023-01-26T12:12:44;14.48;;;6.07;;
71166;SDS011;58864;45.928;20.078;2023-01-26T12:15:05;12.35;;;5.05;;
71166;SDS011;58864;45.928;20.078;2023-01-26T12:17:50;25.57;;;10.43;;
71166;SDS011;58864;45.928;20.078;2023-01-26T12:20:41;58.97;;;24.08;;
71166;SDS011;58864;45.928;20.078;2023-01-26T12:25:48;15.13;;;6.30;;
71166;SDS011;58864;45.928;20.078;2023-01-26T12:28:18;18.13;;;6.72;;
71166;SDS011;58864;45.928;20.078;2023-01-26T12:33:15;17.58;;;6.70;;
71166;SDS011;58864;45.928;20.078;2023-01-26T12:40:56;26.48;;;8.50;;
71166;SDS011;58864;45.928;20.078;2023-01-26T12:46:26;30.02;;;13.43;;
71166;SDS011;58864;45.928;20.078;2023-01-26T12:48:53;340.10;;;140.35;;
71166;SDS011;58864;45.928;20.078;2023-01-26T12:51:22;249.40;;;109.27;;
71166;SDS011;58864;45.928;20.078;2023-01-26T12:53:56;234.38;;;127.78;;
71166;SDS011;58864;45.928;20.078;2023-01-26T12:56:43;44.00;;;19.67;;
71166;SDS011;58864;45.928;20.078;2023-01-26T12:59:18;526.70;;;231.38;;
71166;SDS011;58864;45.928;20.078;2023-01-26T13:01:45;608.53;;;238.82;;
71166;SDS011;58864;45.928;20.078;2023-01-26T13:04:11;560.20;;;222.03;;
71166;SDS011;58864;45.928;20.078;2023-01-26T13:06:37;405.98;;;185.52;;
71166;SDS011;58864;45.928;20.078;2023-01-26T13:09:12;40.70;;;17.60;;
71166;SDS011;58864;45.928;20.078;2023-01-26T13:11:45;69.13;;;29.80;;
71166;SDS011;58864;45.928;20.078;2023-01-26T13:16:49;75.68;;;27.10;;
71166;SDS011;58864;45.928;20.078;2023-01-26T13:19:33;33.57;;;13.43;;
71166;SDS011;58864;45.928;20.078;2023-01-26T13:21:58;74.07;;;26.58;;
71166;SDS011;58864;45.928;20.078;2023-01-26T13:26:47;52.17;;;17.93;;
71166;SDS011;58864;45.928;20.078;2023-01-26T13:34:24;96.38;;;39.33;;
71166;SDS011;58864;45.928;20.078;2023-01-26T13:36:51;43.63;;;17.40;;
71166;SDS011;58864;45.928;20.078;2023-01-26T13:39:23;55.53;;;17.35;;
71166;SDS011;58864;45.928;20.078;2023-01-26T13:41:53;37.45;;;11.95;;
71166;SDS011;58864;45.928;20.078;2023-01-26T13:44:36;91.05;;;25.15;;
71166;SDS011;58864;45.928;20.078;2023-01-26T13:47:04;122.70;;;41.90;;
71166;SDS011;58864;45.928;20.078;2023-01-26T13:49:39;89.80;;;32.47;;
71166;SDS011;58864;45.928;20.078;2023-01-26T13:52:24;34.17;;;13.52;;
71166;SDS011;58864;45.928;20.078;2023-01-26T13:54:50;25.35;;;10.43;;
71166;SDS011;58864;45.928;20.078;2023-01-26T13:57:23;20.52;;;7.85;;
71166;SDS011;58864;45.928;20.078;2023-01-26T13:59:49;16.50;;;7.37;;
71166;SDS011;58864;45.928;20.078;2023-01-26T14:02:29;15.70;;;6.82;;
71166;SDS011;58864;45.928;20.078;2023-01-26T14:04:54;15.43;;;5.93;;
71166;SDS011;58864;45.928;20.078;2023-01-26T14:07:25;13.45;;;5.40;;
71166;SDS011;58864;45.928;20.078;2023-01-26T14:09:51;15.85;;;6.07;;
71166;SDS011;58864;45.928;20.078;2023-01-26T14:12:24;21.50;;;7.87;;
71166;SDS011;58864;45.928;20.078;2023-01-26T14:14:52;68.75;;;23.70;;
71166;SDS011;58864;45.928;20.078;2023-01-26T14:17:23;34.83;;;11.90;;
71166;SDS011;58864;45.928;20.078;2023-01-26T14:19:51;18.02;;;6.45;;
71166;SDS011;58864;45.928;20.078;2023-01-26T14:22:16;34.27;;;14.17;;
71166;SDS011;58864;45.928;20.078;2023-01-26T14:24:41;17.85;;;7.38;;
71166;SDS011;58864;45.928;20.078;2023-01-26T14:27:14;22.83;;;8.83;;
71166;SDS011;58864;45.928;20.078;2023-01-26T14:29:52;15.60;;;6.25;;
71166;SDS011;58864;45.928;20.078;2023-01-26T14:32:16;21.23;;;8.93;;
71166;SDS011;58864;45.928;20.078;2023-01-26T14:34:50;19.63;;;8.20;;
71166;SDS011;58864;45.928;20.078;2023-01-26T14:37:24;19.63;;;8.83;;
71166;SDS011;58864;45.928;20.078;2023-01-26T14:40:08;21.33;;;9.73;;
71166;SDS011;58864;45.928;20.078;2023-01-26T14:42:34;22.45;;;8.05;;
71166;SDS011;58864;45.928;20.078;2023-01-26T14:44:59;15.77;;;6.63;;
71166;SDS011;58864;45.928;20.078;2023-01-26T14:47:25;19.00;;;7.57;;
71166;SDS011;58864;45.928;20.078;2023-01-26T14:49:57;19.37;;;7.13;;
71166;SDS011;58864;45.928;20.078;2023-01-26T14:52:25;26.33;;;10.75;;
71166;SDS011;58864;45.928;20.078;2023-01-26T14:54:52;29.25;;;12.10;;
71166;SDS011;58864;45.928;20.078;2023-01-26T14:57:18;36.58;;;15.15;;
71166;SDS011;58864;45.928;20.078;2023-01-26T14:59:46;31.52;;;12.30;;
71166;SDS011;58864;45.928;20.078;2023-01-26T15:04:38;22.58;;;9.07;;
71166;SDS011;58864;45.928;20.078;2023-01-26T15:09:56;37.50;;;15.38;;
71166;SDS011;58864;45.928;20.078;2023-01-26T15:12:20;40.17;;;14.53;;
71166;SDS011;58864;45.928;20.078;2023-01-26T15:19:59;49.20;;;16.65;;
71166;SDS011;58864;45.928;20.078;2023-01-26T15:22:24;42.07;;;16.60;;
71166;SDS011;58864;45.928;20.078;2023-01-26T15:25:01;40.03;;;16.40;;
71166;SDS011;58864;45.928;20.078;2023-01-26T15:27:41;40.47;;;15.80;;
71166;SDS011;58864;45.928;20.078;2023-01-26T15:30:05;49.67;;;19.37;;
71166;SDS011;58864;45.928;20.078;2023-01-26T15:32:33;41.58;;;17.98;;
71166;SDS011;58864;45.928;20.078;2023-01-26T15:35:06;51.95;;;22.10;;
71166;SDS011;58864;45.928;20.078;2023-01-26T15:37:41;55.53;;;23.58;;
71166;SDS011;58864;45.928;20.078;2023-01-26T15:40:06;40.40;;;18.47;;
71166;SDS011;58864;45.928;20.078;2023-01-26T15:42:31;40.17;;;17.42;;